createdAt,value
2018-12-13T00:01:47.864Z,7.93
2018-12-13T00:04:16.064Z,7.83
2018-12-13T00:06:44.900Z,8.50
2018-12-13T00:09:13.102Z,9.37
2018-12-13T00:11:41.293Z,8.07
2018-12-13T00:14:09.523Z,8.33
2018-12-13T00:16:37.903Z,9.43
2018-12-13T00:19:06.103Z,9.17
2018-12-13T00:21:34.378Z,9.30
2018-12-13T00:24:02.576Z,12.60
2018-12-13T00:26:30.758Z,11.17
2018-12-13T00:28:58.978Z,10.57
2018-12-13T00:31:27.357Z,9.63
2018-12-13T00:33:55.528Z,9.00
2018-12-13T00:36:23.743Z,8.87
2018-12-13T00:38:52.030Z,8.10
2018-12-13T00:41:20.254Z,10.00
2018-12-13T00:43:48.455Z,8.30
2018-12-13T00:46:16.656Z,7.63
2018-12-13T00:48:44.840Z,7.83
2018-12-13T00:51:13.159Z,7.70
2018-12-13T00:53:41.450Z,8.03
2018-12-13T00:56:09.629Z,7.27
2018-12-13T00:58:37.839Z,9.07
2018-12-13T01:01:06.028Z,8.07
2018-12-13T01:03:34.440Z,9.60
2018-12-13T01:06:02.649Z,8.67
2018-12-13T01:08:30.874Z,9.07
2018-12-13T01:10:59.054Z,8.23
2018-12-13T01:13:27.278Z,9.20
2018-12-13T01:15:55.458Z,8.60
2018-12-13T01:18:23.650Z,9.23
2018-12-13T01:20:51.971Z,8.10
2018-12-13T01:23:20.157Z,7.30
2018-12-13T01:25:48.453Z,7.40
2018-12-13T01:28:16.652Z,8.03
2018-12-13T01:30:45.042Z,7.40
2018-12-13T01:33:13.236Z,8.07
2018-12-13T01:35:41.435Z,8.30
2018-12-13T01:38:09.623Z,6.50
2018-12-13T01:40:37.799Z,8.10
2018-12-13T01:43:06.003Z,9.60
2018-12-13T01:45:34.562Z,7.80
2018-12-13T01:48:02.737Z,8.23
2018-12-13T01:50:31.067Z,7.23
2018-12-13T01:52:59.439Z,6.70
2018-12-13T01:55:27.647Z,8.07
2018-12-13T01:57:55.895Z,8.30
2018-12-13T02:02:58.526Z,7.20
2018-12-13T02:05:26.714Z,7.70
2018-12-13T02:07:54.912Z,7.63
2018-12-13T02:10:23.139Z,7.80
2018-12-13T02:12:51.314Z,8.30
2018-12-13T02:15:19.518Z,8.47
2018-12-13T02:17:47.717Z,7.67
2018-12-13T02:20:15.919Z,7.97
2018-12-13T02:22:44.122Z,7.80
2018-12-13T02:25:12.343Z,7.10
2018-12-13T02:27:41.166Z,6.63
2018-12-13T02:30:09.411Z,7.13
2018-12-13T02:32:37.733Z,7.70
2018-12-13T02:35:06.015Z,7.10
2018-12-13T02:37:34.387Z,6.70
2018-12-13T02:40:02.592Z,6.70
2018-12-13T02:42:30.797Z,7.57
2018-12-13T02:44:58.992Z,6.77
2018-12-13T02:47:27.189Z,7.80
2018-12-13T02:49:55.365Z,7.60
2018-12-13T02:52:23.616Z,8.03
2018-12-13T02:54:51.906Z,6.73
2018-12-13T02:57:20.091Z,6.63
2018-12-13T02:59:48.276Z,7.47
2018-12-13T03:02:16.473Z,9.33
2018-12-13T03:04:44.656Z,8.07
2018-12-13T03:07:13.996Z,7.13
2018-12-13T03:09:42.683Z,6.83
2018-12-13T03:12:10.878Z,7.43
2018-12-13T03:14:39.068Z,7.23
2018-12-13T03:17:07.290Z,7.43
2018-12-13T03:19:35.479Z,8.20
2018-12-13T03:22:03.775Z,8.17
2018-12-13T03:24:32.188Z,7.47
2018-12-13T03:27:00.398Z,7.20
2018-12-13T03:29:29.116Z,8.13
2018-12-13T03:31:57.407Z,5.90
2018-12-13T03:34:25.593Z,6.93
2018-12-13T03:36:53.903Z,6.87
2018-12-13T03:39:22.251Z,6.27
2018-12-13T03:41:50.427Z,6.07
2018-12-13T03:44:18.637Z,6.80
2018-12-13T03:46:46.881Z,6.80
2018-12-13T03:49:15.079Z,6.20
2018-12-13T03:51:43.274Z,6.20
2018-12-13T03:54:11.580Z,7.03
2018-12-13T03:56:39.756Z,6.20
2018-12-13T03:59:07.930Z,7.03
2018-12-13T04:01:36.721Z,6.83
2018-12-13T04:04:04.899Z,6.13
2018-12-13T04:06:33.067Z,6.67
2018-12-13T04:09:01.294Z,6.90
2018-12-13T04:11:29.475Z,7.07
2018-12-13T04:13:57.695Z,6.37
2018-12-13T04:16:25.905Z,7.50
2018-12-13T04:18:54.088Z,6.73
2018-12-13T04:21:22.298Z,6.00
2018-12-13T04:23:50.494Z,5.90
2018-12-13T04:26:18.668Z,6.90
2018-12-13T04:28:46.885Z,7.23
2018-12-13T04:31:15.221Z,7.20
2018-12-13T04:33:43.395Z,6.47
2018-12-13T04:36:13.357Z,6.47
2018-12-13T04:38:41.807Z,7.27
2018-12-13T04:41:09.993Z,7.83
2018-12-13T04:43:38.179Z,8.47
2018-12-13T04:46:06.382Z,7.80
2018-12-13T04:48:34.575Z,6.40
2018-12-13T04:51:02.802Z,7.60
2018-12-13T04:53:31.007Z,9.00
2018-12-13T04:55:59.199Z,8.27
2018-12-13T04:58:27.375Z,7.93
2018-12-13T05:00:55.563Z,7.43
2018-12-13T05:03:23.780Z,8.20
2018-12-13T05:05:52.074Z,8.40
2018-12-13T05:08:20.306Z,8.53
2018-12-13T05:10:51.564Z,6.30
2018-12-13T05:13:20.020Z,9.30
2018-12-13T05:15:48.507Z,8.17
2018-12-13T05:18:16.805Z,9.47
2018-12-13T05:20:44.997Z,8.50
2018-12-13T05:23:13.223Z,8.00
2018-12-13T05:25:41.405Z,7.90
2018-12-13T05:28:09.588Z,8.27
2018-12-13T05:30:37.800Z,7.87
2018-12-13T05:33:05.999Z,8.93
2018-12-13T05:35:34.409Z,8.67
2018-12-13T05:38:02.610Z,8.67
2018-12-13T05:40:30.858Z,8.67
2018-12-13T05:42:59.075Z,8.27
2018-12-13T05:45:27.342Z,7.00
2018-12-13T05:47:55.538Z,8.20
2018-12-13T05:50:23.758Z,8.13
2018-12-13T05:52:51.955Z,9.20
2018-12-13T05:55:20.144Z,7.97
2018-12-13T05:57:48.439Z,8.90
2018-12-13T06:00:22.145Z,9.03
2018-12-13T06:02:50.396Z,9.40
2018-12-13T06:05:18.641Z,8.60
2018-12-13T06:07:46.847Z,9.10
2018-12-13T06:10:15.060Z,9.60
2018-12-13T06:12:43.286Z,8.70
2018-12-13T06:15:11.496Z,9.80
2018-12-13T06:17:40.936Z,10.50
2018-12-13T06:20:09.326Z,10.00
2018-12-13T06:22:37.544Z,9.53
2018-12-13T06:25:05.753Z,9.10
2018-12-13T06:27:33.929Z,11.17
2018-12-13T06:30:07.446Z,13.00
2018-12-13T06:32:33.284Z,10.70
2018-12-13T06:35:01.778Z,11.03
2018-12-13T06:37:29.980Z,9.43
2018-12-13T06:39:58.173Z,11.73
2018-12-13T06:42:26.387Z,9.93
2018-12-13T06:44:54.601Z,10.80
2018-12-13T06:47:22.819Z,11.60
2018-12-13T06:49:51.203Z,10.43
2018-12-13T06:52:19.439Z,10.70
2018-12-13T06:54:47.621Z,11.20
2018-12-13T06:57:15.965Z,11.27
2018-12-13T06:59:44.178Z,11.33
2018-12-13T07:02:12.368Z,11.03
2018-12-13T07:04:40.671Z,10.00
2018-12-13T07:07:08.886Z,11.80
2018-12-13T07:09:37.084Z,12.20
2018-12-13T07:12:05.458Z,12.97
2018-12-13T07:14:33.696Z,10.73
2018-12-13T07:17:01.885Z,11.67
2018-12-13T07:19:30.065Z,12.77
2018-12-13T07:21:58.292Z,16.83
2018-12-13T07:24:26.499Z,12.07
2018-12-13T07:26:54.713Z,13.10
2018-12-13T07:29:22.929Z,12.70
2018-12-13T07:31:51.295Z,12.43
2018-12-13T07:34:19.487Z,13.50
2018-12-13T07:36:47.681Z,13.07
2018-12-13T07:39:15.870Z,12.10
2018-12-13T07:41:44.112Z,12.23
2018-12-13T07:44:12.304Z,12.60
2018-12-13T07:46:40.784Z,13.63
2018-12-13T07:49:08.956Z,13.47
2018-12-13T07:51:37.193Z,12.07
2018-12-13T07:54:05.482Z,13.30
2018-12-13T07:56:33.650Z,14.50
2018-12-13T07:59:01.850Z,12.90
2018-12-13T08:01:30.028Z,15.37
2018-12-13T08:03:58.204Z,12.90
2018-12-13T08:06:26.402Z,13.23
2018-12-13T08:08:54.580Z,14.40
2018-12-13T08:11:22.798Z,14.80
2018-12-13T08:13:51.002Z,13.37
2018-12-13T08:16:19.186Z,15.40
2018-12-13T08:18:47.380Z,14.73
2018-12-13T08:21:15.603Z,13.20
2018-12-13T08:23:43.899Z,15.23
2018-12-13T08:26:12.088Z,15.03
2018-12-13T08:28:40.284Z,14.73
2018-12-13T08:31:08.606Z,14.70
2018-12-13T08:33:36.785Z,15.50
2018-12-13T08:36:04.975Z,15.50
2018-12-13T08:38:33.146Z,14.40
2018-12-13T08:41:01.315Z,14.90
2018-12-13T08:43:29.757Z,15.77
2018-12-13T08:45:57.941Z,15.30
2018-12-13T08:48:26.128Z,16.87
2018-12-13T08:50:54.542Z,15.40
2018-12-13T08:53:22.786Z,15.90
2018-12-13T08:55:50.961Z,14.67
2018-12-13T08:58:19.387Z,14.23
2018-12-13T09:00:47.561Z,14.40
2018-12-13T09:03:15.743Z,14.43
2018-12-13T09:05:44.047Z,15.47
2018-12-13T09:08:12.229Z,15.63
2018-12-13T09:10:40.628Z,14.70
2018-12-13T09:13:08.856Z,14.40
2018-12-13T09:15:37.177Z,16.17
2018-12-13T09:18:05.409Z,15.80
2018-12-13T09:20:33.608Z,13.50
2018-12-13T09:23:01.811Z,15.00
2018-12-13T09:25:29.985Z,15.50
2018-12-13T09:27:58.176Z,13.80
2018-12-13T09:30:26.363Z,14.77
2018-12-13T09:32:54.561Z,14.60
2018-12-13T09:35:22.994Z,15.73
2018-12-13T09:37:52.009Z,15.83
2018-12-13T09:40:20.193Z,16.20
2018-12-13T09:42:48.411Z,15.97
2018-12-13T09:45:16.709Z,17.97
2018-12-13T09:47:44.886Z,15.97
2018-12-13T09:50:13.239Z,14.23
2018-12-13T09:52:41.415Z,16.40
2018-12-13T09:55:09.714Z,16.10
2018-12-13T09:57:37.922Z,15.70
2018-12-13T10:00:09.480Z,14.70
2018-12-13T10:02:37.786Z,14.30
2018-12-13T10:05:06.173Z,15.20
2018-12-13T10:07:34.352Z,15.80
2018-12-13T10:10:02.553Z,14.23
2018-12-13T10:12:31.436Z,15.40
2018-12-13T10:14:59.712Z,16.10
2018-12-13T10:17:27.895Z,14.73
2018-12-13T10:19:56.099Z,15.63
2018-12-13T10:22:24.296Z,16.10
2018-12-13T10:24:52.478Z,15.70
2018-12-13T10:27:20.682Z,14.93
2018-12-13T10:29:48.852Z,14.80
2018-12-13T10:32:17.089Z,15.90
2018-12-13T10:34:45.331Z,17.30
2018-12-13T10:37:13.496Z,16.87
2018-12-13T10:39:41.668Z,15.20
2018-12-13T10:42:09.881Z,15.47
2018-12-13T10:44:40.088Z,15.33
2018-12-13T10:47:08.348Z,16.60
2018-12-13T10:49:36.562Z,15.30
2018-12-13T10:52:04.769Z,15.30
2018-12-13T10:54:36.011Z,16.77
2018-12-13T10:57:04.222Z,15.83
2018-12-13T10:59:32.395Z,16.33
2018-12-13T11:02:01.796Z,15.70
2018-12-13T11:04:30.019Z,14.77
2018-12-13T11:06:58.190Z,15.57
2018-12-13T11:09:26.489Z,16.47
2018-12-13T11:11:54.768Z,19.07
2018-12-13T11:14:22.944Z,18.70
2018-12-13T11:16:51.216Z,19.20
2018-12-13T11:19:19.536Z,16.87
2018-12-13T11:21:47.717Z,17.90
2018-12-13T11:24:15.889Z,15.67
2018-12-13T11:26:44.092Z,17.73
2018-12-13T11:32:37.965Z,16.60
2018-12-13T11:35:06.138Z,14.80
2018-12-13T11:37:34.332Z,15.87
2018-12-13T11:40:02.688Z,15.30
2018-12-13T11:42:30.874Z,16.43
2018-12-13T11:44:59.185Z,15.93
2018-12-13T11:47:27.507Z,19.77
2018-12-13T11:49:55.822Z,17.53
2018-12-13T11:52:24.046Z,17.00
2018-12-13T11:54:52.326Z,15.77
2018-12-13T11:57:20.500Z,14.97
2018-12-13T11:59:48.796Z,15.07
2018-12-13T12:02:17.062Z,16.43
2018-12-13T12:04:45.433Z,18.10
2018-12-13T12:07:13.609Z,17.40
2018-12-13T12:09:41.819Z,17.63
2018-12-13T12:12:10.000Z,17.27
2018-12-13T12:14:38.198Z,17.23
2018-12-13T12:17:06.409Z,17.10
2018-12-13T12:19:34.589Z,16.43
2018-12-13T12:22:02.796Z,15.07
2018-12-13T12:24:31.032Z,18.67
2018-12-13T12:26:59.205Z,16.87
2018-12-13T12:29:27.384Z,16.63
2018-12-13T12:31:55.700Z,19.40
2018-12-13T12:34:23.896Z,16.63
2018-12-13T12:36:52.113Z,17.17
2018-12-13T12:39:20.325Z,17.50
2018-12-13T12:41:48.524Z,16.90
2018-12-13T12:44:16.701Z,17.90
2018-12-13T12:46:44.907Z,17.13
2018-12-13T12:49:13.079Z,16.93
2018-12-13T12:51:41.248Z,18.23
2018-12-13T12:54:09.469Z,17.17
2018-12-13T12:56:37.637Z,17.97
2018-12-13T12:59:05.805Z,19.27
2018-12-13T13:01:34.017Z,17.20
2018-12-13T13:04:02.197Z,16.47
2018-12-13T13:06:30.501Z,17.23
2018-12-13T13:08:58.716Z,15.53
2018-12-13T13:11:26.897Z,16.70
2018-12-13T13:13:55.081Z,15.27
2018-12-13T13:16:23.332Z,15.67
2018-12-13T13:18:51.505Z,14.70
2018-12-13T13:21:19.695Z,13.67
2018-12-13T13:23:47.897Z,16.17
2018-12-13T13:26:16.077Z,14.17
2018-12-13T13:28:44.389Z,14.37
2018-12-13T13:31:12.585Z,15.90
2018-12-13T13:33:40.861Z,14.13
2018-12-13T13:36:09.159Z,14.20
2018-12-13T13:38:37.387Z,14.40
2018-12-13T13:41:05.566Z,14.17
2018-12-13T13:43:33.756Z,14.67
2018-12-13T13:46:01.959Z,13.90
2018-12-13T13:48:30.152Z,15.67
2018-12-13T13:50:58.331Z,14.20
2018-12-13T13:53:26.530Z,14.80
2018-12-13T13:55:54.725Z,15.97
2018-12-13T13:58:22.884Z,13.67
2018-12-13T14:00:51.072Z,13.63
2018-12-13T14:03:19.260Z,14.07
2018-12-13T14:05:47.451Z,15.57
2018-12-13T14:08:15.658Z,14.43
2018-12-13T14:10:43.974Z,13.00
2018-12-13T14:13:12.180Z,14.30
2018-12-13T14:15:40.390Z,11.70
2018-12-13T14:18:08.582Z,12.47
2018-12-13T14:20:36.761Z,10.70
2018-12-13T14:23:05.430Z,11.70
2018-12-13T14:25:33.611Z,13.50
2018-12-13T14:28:01.794Z,12.57
2018-12-13T14:30:29.989Z,13.93
2018-12-13T14:32:58.166Z,13.63
2018-12-13T14:35:26.351Z,12.47
2018-12-13T14:37:54.549Z,14.03
2018-12-13T14:40:22.722Z,14.33
2018-12-13T14:42:51.006Z,13.47
2018-12-13T14:45:19.205Z,14.87
2018-12-13T14:47:47.491Z,13.80
2018-12-13T14:50:15.875Z,14.90
2018-12-13T14:52:44.097Z,14.20
2018-12-13T14:55:12.278Z,13.67
2018-12-13T14:57:40.530Z,14.33
2018-12-13T15:00:09.186Z,13.37
2018-12-13T15:02:37.369Z,14.13
2018-12-13T15:05:06.174Z,14.03
2018-12-13T15:07:34.380Z,14.83
2018-12-13T15:10:02.583Z,15.70
2018-12-13T15:12:30.871Z,13.37
2018-12-13T15:14:59.066Z,16.17
2018-12-13T15:17:27.259Z,14.77
2018-12-13T15:19:55.439Z,16.27
2018-12-13T15:22:23.709Z,16.33
2018-12-13T15:24:51.880Z,15.40
2018-12-13T15:27:20.058Z,14.60
2018-12-13T15:29:48.260Z,14.27
2018-12-13T15:32:16.431Z,15.27
2018-12-13T15:34:44.643Z,15.13
2018-12-13T15:37:12.879Z,15.20
2018-12-13T15:39:41.059Z,13.33
2018-12-13T15:42:09.235Z,15.10
2018-12-13T15:44:37.434Z,15.83
2018-12-13T15:47:05.605Z,15.90
2018-12-13T15:49:34.002Z,15.20
2018-12-13T15:52:02.203Z,14.30
2018-12-13T15:54:30.391Z,16.07
2018-12-13T15:56:58.594Z,15.73
2018-12-13T15:59:26.801Z,14.17
2018-12-13T16:01:54.978Z,16.67
2018-12-13T16:04:23.253Z,16.37
2018-12-13T16:06:51.450Z,14.97
2018-12-13T16:09:19.698Z,17.20
2018-12-13T16:11:47.891Z,17.73
2018-12-13T16:14:16.087Z,15.30
2018-12-13T16:16:44.260Z,15.63
2018-12-13T16:19:12.439Z,15.33
2018-12-13T16:21:40.644Z,14.37
2018-12-13T16:24:08.823Z,20.47
2018-12-13T16:26:37.010Z,14.83
2018-12-13T16:29:05.207Z,15.60
2018-12-13T16:31:33.400Z,14.73
2018-12-13T16:34:01.584Z,12.97
2018-12-13T16:36:29.805Z,13.60
2018-12-13T16:38:57.997Z,12.53
2018-12-13T16:41:26.197Z,13.00
2018-12-13T16:43:54.402Z,14.77
2018-12-13T16:46:22.667Z,14.67
2018-12-13T16:48:51.004Z,15.00
2018-12-13T16:51:19.235Z,13.20
2018-12-13T16:53:47.445Z,13.63
2018-12-13T16:56:15.632Z,13.90
2018-12-13T16:58:43.823Z,13.73
2018-12-13T17:01:12.000Z,14.20
2018-12-13T17:03:41.764Z,13.40
2018-12-13T17:06:10.000Z,12.90
2018-12-13T17:08:38.182Z,13.93
2018-12-13T17:11:06.361Z,15.10
2018-12-13T17:13:34.595Z,13.67
2018-12-13T17:16:02.867Z,15.33
2018-12-13T17:18:31.201Z,15.03
2018-12-13T17:20:59.416Z,14.23
2018-12-13T17:23:27.576Z,12.70
2018-12-13T17:25:55.874Z,14.63
2018-12-13T17:28:24.099Z,16.20
2018-12-13T17:30:52.279Z,16.37
2018-12-13T17:33:20.475Z,17.07
2018-12-13T17:35:48.697Z,13.80
2018-12-13T17:38:16.883Z,15.13
2018-12-13T17:40:45.073Z,15.40
2018-12-13T17:43:13.274Z,14.03
2018-12-13T17:45:41.462Z,16.00
2018-12-13T17:48:09.655Z,17.20
2018-12-13T17:50:37.841Z,16.70
2018-12-13T17:53:06.016Z,16.13
2018-12-13T17:55:34.331Z,14.40
2018-12-13T17:58:02.534Z,15.00
2018-12-13T18:00:30.736Z,15.73
2018-12-13T18:02:58.920Z,16.80
2018-12-13T18:05:27.313Z,15.37
2018-12-13T18:07:55.492Z,14.30
2018-12-13T18:10:29.204Z,14.90
2018-12-13T18:12:53.913Z,15.87
2018-12-13T18:15:22.109Z,16.83
2018-12-13T18:17:50.513Z,16.10
2018-12-13T18:20:18.732Z,15.43
2018-12-13T18:22:46.925Z,16.50
2018-12-13T18:25:15.108Z,17.83
2018-12-13T18:27:43.431Z,16.70
2018-12-13T18:30:11.622Z,19.03
2018-12-13T18:32:39.818Z,16.63
2018-12-13T18:35:08.050Z,17.30
2018-12-13T18:37:36.247Z,18.20
2018-12-13T18:40:05.448Z,17.37
2018-12-13T18:42:33.662Z,15.87
2018-12-13T18:45:02.108Z,16.40
2018-12-13T18:47:30.438Z,16.33
2018-12-13T18:49:58.641Z,16.03
2018-12-13T18:52:26.864Z,16.40
2018-12-13T18:54:55.175Z,18.10
2018-12-13T18:57:23.406Z,17.10
2018-12-13T18:59:51.873Z,18.10
2018-12-13T19:02:20.082Z,19.23
2018-12-13T19:04:48.281Z,17.70
2018-12-13T19:07:16.487Z,17.07
2018-12-13T19:09:44.666Z,18.17
2018-12-13T19:12:12.919Z,16.60
2018-12-13T19:14:41.118Z,17.57
2018-12-13T19:17:09.323Z,16.57
2018-12-13T19:19:37.538Z,16.67
2018-12-13T19:22:05.735Z,16.37
2018-12-13T19:24:33.953Z,18.37
2018-12-13T19:27:02.172Z,16.83
2018-12-13T19:29:30.355Z,16.93
2018-12-13T19:31:58.690Z,17.50
2018-12-13T19:34:26.981Z,18.60
2018-12-13T19:36:55.165Z,16.97
2018-12-13T19:39:23.435Z,17.20
2018-12-13T19:41:51.651Z,18.03
2018-12-13T19:44:19.892Z,20.13
2018-12-13T19:46:48.087Z,18.57
2018-12-13T19:49:16.679Z,20.67
2018-12-13T19:51:44.872Z,18.30
2018-12-13T19:54:13.198Z,17.30
2018-12-13T19:56:41.673Z,19.67
2018-12-13T19:59:09.866Z,19.70
2018-12-13T20:01:38.065Z,19.13
2018-12-13T20:04:06.253Z,20.10
2018-12-13T20:06:34.786Z,18.20
2018-12-13T20:09:03.571Z,19.77
2018-12-13T20:11:35.376Z,19.63
2018-12-13T20:14:06.651Z,19.23
2018-12-13T20:16:36.717Z,17.53
2018-12-13T20:19:05.055Z,17.70
2018-12-13T20:21:33.569Z,16.93
2018-12-13T20:24:02.385Z,15.70
2018-12-13T20:26:31.342Z,16.80
2018-12-13T20:29:00.158Z,15.73
2018-12-13T20:31:28.515Z,15.97
2018-12-13T20:33:56.706Z,15.80
2018-12-13T20:36:24.895Z,15.43
2018-12-13T20:38:53.317Z,15.20
2018-12-13T20:41:21.493Z,16.70
2018-12-13T20:43:49.722Z,16.10
2018-12-13T20:46:17.947Z,14.97
2018-12-13T20:48:46.117Z,14.40
2018-12-13T20:51:14.359Z,15.30
2018-12-13T20:53:42.630Z,15.77
2018-12-13T20:56:10.853Z,14.50
2018-12-13T20:58:39.046Z,15.00
2018-12-13T21:01:07.264Z,14.60
2018-12-13T21:03:35.462Z,14.60
2018-12-13T21:06:03.660Z,13.97
2018-12-13T21:08:31.876Z,15.30
2018-12-13T21:11:00.074Z,14.93
2018-12-13T21:13:28.282Z,14.47
2018-12-13T21:15:56.492Z,15.17
2018-12-13T21:18:24.752Z,14.60
2018-12-13T21:20:52.948Z,12.63
2018-12-13T21:23:21.147Z,15.63
2018-12-13T21:25:49.500Z,14.50
2018-12-13T21:28:17.701Z,13.70
2018-12-13T21:30:45.917Z,12.57
2018-12-13T21:33:14.132Z,14.70
2018-12-13T21:35:42.387Z,15.47
2018-12-13T21:38:10.635Z,16.40
2018-12-13T21:40:38.842Z,14.30
2018-12-13T21:43:07.013Z,13.40
2018-12-13T21:45:35.303Z,14.87
2018-12-13T21:48:03.601Z,15.60
2018-12-13T21:50:37.877Z,13.13
2018-12-13T21:53:06.057Z,13.90
2018-12-13T21:55:34.242Z,15.60
2018-12-13T21:58:02.441Z,15.57
2018-12-13T22:00:30.698Z,15.43
2018-12-13T22:02:59.004Z,14.27
2018-12-13T22:05:27.202Z,14.50
2018-12-13T22:07:55.380Z,18.47
2018-12-13T22:10:23.564Z,15.50
2018-12-13T22:12:51.754Z,16.43
2018-12-13T22:15:19.945Z,15.50
2018-12-13T22:17:48.145Z,17.27
2018-12-13T22:20:16.353Z,16.77
2018-12-13T22:22:44.526Z,17.67
2018-12-13T22:25:12.752Z,19.50
2018-12-13T22:27:40.951Z,16.43
2018-12-13T22:30:09.124Z,14.17
2018-12-13T22:32:37.299Z,14.70
2018-12-13T22:35:06.188Z,15.80
2018-12-13T22:37:34.367Z,13.93
2018-12-13T22:40:02.630Z,14.60
2018-12-13T22:42:31.836Z,14.10
2018-12-13T22:45:00.025Z,13.43
2018-12-13T22:47:28.335Z,14.67
2018-12-13T22:49:56.553Z,14.43
2018-12-13T22:52:24.728Z,14.20
2018-12-13T22:54:53.556Z,14.83
2018-12-13T22:57:21.755Z,13.50
2018-12-13T22:59:49.934Z,16.13
2018-12-13T23:02:18.110Z,16.83
2018-12-13T23:04:46.308Z,16.13
2018-12-13T23:07:14.502Z,16.00
2018-12-13T23:09:42.681Z,15.60
2018-12-13T23:12:10.876Z,14.13
2018-12-13T23:14:39.180Z,14.20
2018-12-13T23:17:07.891Z,14.70
2018-12-13T23:19:36.092Z,16.40
2018-12-13T23:22:04.267Z,13.30
2018-12-13T23:24:32.595Z,15.40
2018-12-13T23:27:01.010Z,15.33
2018-12-13T23:29:29.186Z,13.80
2018-12-13T23:31:57.358Z,14.23
2018-12-13T23:34:25.568Z,13.23
2018-12-13T23:36:53.871Z,14.17
2018-12-13T23:39:22.043Z,14.57
2018-12-13T23:41:50.257Z,13.90
2018-12-13T23:44:18.434Z,14.20
2018-12-13T23:46:46.611Z,12.10
2018-12-13T23:49:14.804Z,12.60
2018-12-13T23:51:42.985Z,13.60
2018-12-13T23:54:11.170Z,13.50
2018-12-13T23:56:39.376Z,13.10
2018-12-13T23:59:07.639Z,13.13
